sensor_id;sensor_type;location;lat;lon;timestamp;temperature;humidity
47414;DHT22;33163;0.000;0.000;2023-07-29T00:00:41;21.90;77.00
47414;DHT22;33163;0.000;0.000;2023-07-29T00:03:08;21.90;77.00
47414;DHT22;33163;0.000;0.000;2023-07-29T00:05:35;21.90;77.00
47414;DHT22;33163;0.000;0.000;2023-07-29T00:08:02;21.80;77.00
47414;DHT22;33163;0.000;0.000;2023-07-29T00:10:31;21.90;77.00
47414;DHT22;33163;0.000;0.000;2023-07-29T00:12:58;21.80;76.90
47414;DHT22;33163;0.000;0.000;2023-07-29T00:15:25;21.80;76.90
47414;DHT22;33163;0.000;0.000;2023-07-29T00:17:52;21.90;77.00
47414;DHT22;33163;0.000;0.000;2023-07-29T00:20:19;21.90;76.90
47414;DHT22;33163;0.000;0.000;2023-07-29T00:22:45;21.80;76.80
47414;DHT22;33163;0.000;0.000;2023-07-29T00:25:15;21.80;76.80
47414;DHT22;33163;0.000;0.000;2023-07-29T00:27:43;21.80;76.90
47414;DHT22;33163;0.000;0.000;2023-07-29T00:30:11;21.80;76.80
47414;DHT22;33163;0.000;0.000;2023-07-29T00:32:37;21.80;76.80
47414;DHT22;33163;0.000;0.000;2023-07-29T00:35:05;21.80;76.70
47414;DHT22;33163;0.000;0.000;2023-07-29T00:37:32;21.80;76.70
47414;DHT22;33163;0.000;0.000;2023-07-29T00:39:59;21.80;76.60
47414;DHT22;33163;0.000;0.000;2023-07-29T00:42:26;21.80;76.60
47414;DHT22;33163;0.000;0.000;2023-07-29T00:44:54;21.80;76.60
47414;DHT22;33163;0.000;0.000;2023-07-29T00:47:21;21.80;76.60
47414;DHT22;33163;0.000;0.000;2023-07-29T00:49:49;21.80;76.60
47414;DHT22;33163;0.000;0.000;2023-07-29T00:52:16;21.80;76.60
47414;DHT22;33163;0.000;0.000;2023-07-29T00:54:42;21.80;76.50
47414;DHT22;33163;0.000;0.000;2023-07-29T00:57:10;21.80;76.60
47414;DHT22;33163;0.000;0.000;2023-07-29T00:59:39;21.80;76.60
47414;DHT22;33163;0.000;0.000;2023-07-29T01:02:08;21.80;76.60
47414;DHT22;33163;0.000;0.000;2023-07-29T01:04:35;21.80;76.60
47414;DHT22;33163;0.000;0.000;2023-07-29T01:07:07;21.80;76.60
47414;DHT22;33163;0.000;0.000;2023-07-29T01:09:50;21.80;76.50
47414;DHT22;33163;0.000;0.000;2023-07-29T01:12:27;21.80;76.60
47414;DHT22;33163;0.000;0.000;2023-07-29T01:15:01;21.80;76.60
47414;DHT22;33163;0.000;0.000;2023-07-29T01:17:33;21.80;76.60
47414;DHT22;33163;0.000;0.000;2023-07-29T01:20:07;21.80;76.50
47414;DHT22;33163;0.000;0.000;2023-07-29T01:22:36;21.80;76.50
47414;DHT22;33163;0.000;0.000;2023-07-29T01:25:05;21.80;76.60
47414;DHT22;33163;0.000;0.000;2023-07-29T01:27:32;21.80;76.50
47414;DHT22;33163;0.000;0.000;2023-07-29T01:29:59;21.80;76.60
47414;DHT22;33163;0.000;0.000;2023-07-29T01:32:31;21.80;76.60
47414;DHT22;33163;0.000;0.000;2023-07-29T01:35:03;21.80;76.60
47414;DHT22;33163;0.000;0.000;2023-07-29T01:37:34;21.80;76.60
47414;DHT22;33163;0.000;0.000;2023-07-29T01:40:07;21.80;76.60
47414;DHT22;33163;0.000;0.000;2023-07-29T01:42:35;21.80;76.60
47414;DHT22;33163;0.000;0.000;2023-07-29T01:45:02;21.80;76.60
47414;DHT22;33163;0.000;0.000;2023-07-29T01:47:29;21.80;76.60
47414;DHT22;33163;0.000;0.000;2023-07-29T01:49:55;21.80;76.60
47414;DHT22;33163;0.000;0.000;2023-07-29T01:52:22;21.80;76.60
47414;DHT22;33163;0.000;0.000;2023-07-29T01:54:49;21.80;76.60
47414;DHT22;33163;0.000;0.000;2023-07-29T01:57:17;21.80;76.60
47414;DHT22;33163;0.000;0.000;2023-07-29T01:59:44;21.80;76.60
47414;DHT22;33163;0.000;0.000;2023-07-29T02:02:10;21.80;76.60
47414;DHT22;33163;0.000;0.000;2023-07-29T02:04:37;21.80;76.60
47414;DHT22;33163;0.000;0.000;2023-07-29T02:07:04;21.80;76.60
47414;DHT22;33163;0.000;0.000;2023-07-29T02:09:31;21.80;76.60
47414;DHT22;33163;0.000;0.000;2023-07-29T02:11:58;21.80;76.50
47414;DHT22;33163;0.000;0.000;2023-07-29T02:14:26;21.80;76.50
47414;DHT22;33163;0.000;0.000;2023-07-29T02:16:53;21.80;76.50
47414;DHT22;33163;0.000;0.000;2023-07-29T02:19:19;21.80;76.50
47414;DHT22;33163;0.000;0.000;2023-07-29T02:21:46;21.80;76.50
47414;DHT22;33163;0.000;0.000;2023-07-29T02:24:13;21.80;76.50
47414;DHT22;33163;0.000;0.000;2023-07-29T02:26:40;21.80;76.40
47414;DHT22;33163;0.000;0.000;2023-07-29T02:29:07;21.80;76.40
47414;DHT22;33163;0.000;0.000;2023-07-29T02:31:35;21.80;76.50
47414;DHT22;33163;0.000;0.000;2023-07-29T02:34:03;21.80;76.40
47414;DHT22;33163;0.000;0.000;2023-07-29T02:36:29;21.70;76.40
47414;DHT22;33163;0.000;0.000;2023-07-29T02:38:56;21.80;76.40
47414;DHT22;33163;0.000;0.000;2023-07-29T02:41:23;21.70;76.40
47414;DHT22;33163;0.000;0.000;2023-07-29T02:43:50;21.70;76.40
47414;DHT22;33163;0.000;0.000;2023-07-29T02:46:17;21.70;76.40
47414;DHT22;33163;0.000;0.000;2023-07-29T02:48:45;21.70;76.40
47414;DHT22;33163;0.000;0.000;2023-07-29T02:51:12;21.80;76.40
47414;DHT22;33163;0.000;0.000;2023-07-29T02:53:39;21.70;76.30
47414;DHT22;33163;0.000;0.000;2023-07-29T02:56:06;21.70;76.40
47414;DHT22;33163;0.000;0.000;2023-07-29T02:58:35;21.70;76.40
47414;DHT22;33163;0.000;0.000;2023-07-29T03:01:03;21.70;77.00
47414;DHT22;33163;0.000;0.000;2023-07-29T03:03:30;21.70;76.40
47414;DHT22;33163;0.000;0.000;2023-07-29T03:05:59;21.70;76.30
47414;DHT22;33163;0.000;0.000;2023-07-29T03:08:27;21.70;76.30
47414;DHT22;33163;0.000;0.000;2023-07-29T03:10:54;21.70;76.30
47414;DHT22;33163;0.000;0.000;2023-07-29T03:13:21;21.70;76.30
47414;DHT22;33163;0.000;0.000;2023-07-29T03:15:48;21.70;76.40
47414;DHT22;33163;0.000;0.000;2023-07-29T03:18:15;21.70;76.30
47414;DHT22;33163;0.000;0.000;2023-07-29T03:20:42;21.70;76.30
47414;DHT22;33163;0.000;0.000;2023-07-29T03:23:10;21.70;76.30
47414;DHT22;33163;0.000;0.000;2023-07-29T03:25:37;21.70;76.30
47414;DHT22;33163;0.000;0.000;2023-07-29T03:28:03;21.70;76.30
47414;DHT22;33163;0.000;0.000;2023-07-29T03:30:30;21.70;76.40
47414;DHT22;33163;0.000;0.000;2023-07-29T03:32:57;21.70;76.40
47414;DHT22;33163;0.000;0.000;2023-07-29T03:35:24;21.70;76.40
47414;DHT22;33163;0.000;0.000;2023-07-29T03:37:50;21.70;76.40
47414;DHT22;33163;0.000;0.000;2023-07-29T03:40:18;21.70;76.40
47414;DHT22;33163;0.000;0.000;2023-07-29T03:42:45;21.70;76.40
47414;DHT22;33163;0.000;0.000;2023-07-29T03:45:12;21.70;76.40
47414;DHT22;33163;0.000;0.000;2023-07-29T03:47:39;21.70;76.40
47414;DHT22;33163;0.000;0.000;2023-07-29T03:50:06;21.70;76.50
47414;DHT22;33163;0.000;0.000;2023-07-29T03:52:33;21.70;76.40
47414;DHT22;33163;0.000;0.000;2023-07-29T03:54:59;21.70;76.40
47414;DHT22;33163;0.000;0.000;2023-07-29T03:57:27;21.70;76.40
47414;DHT22;33163;0.000;0.000;2023-07-29T03:59:55;21.70;76.40
47414;DHT22;33163;0.000;0.000;2023-07-29T04:02:22;21.70;76.40
47414;DHT22;33163;0.000;0.000;2023-07-29T04:04:48;21.70;76.40
47414;DHT22;33163;0.000;0.000;2023-07-29T04:07:15;21.70;76.40
47414;DHT22;33163;0.000;0.000;2023-07-29T04:09:42;21.70;76.40
47414;DHT22;33163;0.000;0.000;2023-07-29T04:12:09;21.70;76.40
47414;DHT22;33163;0.000;0.000;2023-07-29T04:14:38;21.70;76.40
47414;DHT22;33163;0.000;0.000;2023-07-29T04:17:05;21.70;76.40
47414;DHT22;33163;0.000;0.000;2023-07-29T04:19:31;21.70;76.40
47414;DHT22;33163;0.000;0.000;2023-07-29T04:21:58;21.70;77.00
47414;DHT22;33163;0.000;0.000;2023-07-29T04:24:25;21.70;76.40
47414;DHT22;33163;0.000;0.000;2023-07-29T04:26:52;21.70;76.40
47414;DHT22;33163;0.000;0.000;2023-07-29T04:29:19;21.60;76.30
47414;DHT22;33163;0.000;0.000;2023-07-29T04:31:47;21.70;76.40
47414;DHT22;33163;0.000;0.000;2023-07-29T04:34:14;21.70;76.40
47414;DHT22;33163;0.000;0.000;2023-07-29T04:36:40;21.70;76.40
47414;DHT22;33163;0.000;0.000;2023-07-29T04:39:07;21.70;76.40
47414;DHT22;33163;0.000;0.000;2023-07-29T04:41:34;21.70;76.40
47414;DHT22;33163;0.000;0.000;2023-07-29T04:44:01;21.60;76.30
47414;DHT22;33163;0.000;0.000;2023-07-29T04:46:28;21.70;76.50
47414;DHT22;33163;0.000;0.000;2023-07-29T04:48:56;21.60;76.50
47414;DHT22;33163;0.000;0.000;2023-07-29T04:51:23;21.60;76.50
47414;DHT22;33163;0.000;0.000;2023-07-29T04:53:50;21.70;76.40
47414;DHT22;33163;0.000;0.000;2023-07-29T04:56:17;21.60;76.40
47414;DHT22;33163;0.000;0.000;2023-07-29T04:58:44;21.60;76.40
47414;DHT22;33163;0.000;0.000;2023-07-29T05:01:11;21.60;76.30
47414;DHT22;33163;0.000;0.000;2023-07-29T05:03:37;21.60;76.40
47414;DHT22;33163;0.000;0.000;2023-07-29T05:06:06;21.70;76.40
47414;DHT22;33163;0.000;0.000;2023-07-29T05:08:33;21.70;76.40
47414;DHT22;33163;0.000;0.000;2023-07-29T05:11:00;21.70;76.40
47414;DHT22;33163;0.000;0.000;2023-07-29T05:13:27;21.60;76.30
47414;DHT22;33163;0.000;0.000;2023-07-29T05:15:53;21.60;76.30
47414;DHT22;33163;0.000;0.000;2023-07-29T05:18:20;21.70;76.40
47414;DHT22;33163;0.000;0.000;2023-07-29T05:20:47;21.70;76.40
47414;DHT22;33163;0.000;0.000;2023-07-29T05:23:15;21.70;76.40
47414;DHT22;33163;0.000;0.000;2023-07-29T05:25:42;21.60;76.30
47414;DHT22;33163;0.000;0.000;2023-07-29T05:28:09;21.60;76.30
47414;DHT22;33163;0.000;0.000;2023-07-29T05:30:36;21.70;76.40
47414;DHT22;33163;0.000;0.000;2023-07-29T05:33:05;21.70;76.40
47414;DHT22;33163;0.000;0.000;2023-07-29T05:35:33;21.70;76.40
47414;DHT22;33163;0.000;0.000;2023-07-29T05:38:00;21.60;76.40
47414;DHT22;33163;0.000;0.000;2023-07-29T05:40:28;21.70;76.50
47414;DHT22;33163;0.000;0.000;2023-07-29T05:42:54;21.60;76.50
47414;DHT22;33163;0.000;0.000;2023-07-29T05:45:21;21.70;76.60
47414;DHT22;33163;0.000;0.000;2023-07-29T05:47:48;21.70;76.60
47414;DHT22;33163;0.000;0.000;2023-07-29T05:50:15;21.70;76.60
47414;DHT22;33163;0.000;0.000;2023-07-29T05:52:41;21.60;76.50
47414;DHT22;33163;0.000;0.000;2023-07-29T05:55:09;21.70;76.60
47414;DHT22;33163;0.000;0.000;2023-07-29T05:57:37;21.70;76.60
47414;DHT22;33163;0.000;0.000;2023-07-29T06:00:05;21.70;76.60
47414;DHT22;33163;0.000;0.000;2023-07-29T06:02:32;21.70;76.60
47414;DHT22;33163;0.000;0.000;2023-07-29T06:04:58;21.70;76.60
47414;DHT22;33163;0.000;0.000;2023-07-29T06:07:26;21.60;76.60
47414;DHT22;33163;0.000;0.000;2023-07-29T06:09:55;21.70;76.70
47414;DHT22;33163;0.000;0.000;2023-07-29T06:12:23;21.60;76.70
47414;DHT22;33163;0.000;0.000;2023-07-29T06:14:51;21.70;76.70
47414;DHT22;33163;0.000;0.000;2023-07-29T06:17:24;21.70;76.80
47414;DHT22;33163;0.000;0.000;2023-07-29T06:19:51;21.70;76.80
47414;DHT22;33163;0.000;0.000;2023-07-29T06:22:18;21.60;76.80
47414;DHT22;33163;0.000;0.000;2023-07-29T06:24:45;21.60;76.80
47414;DHT22;33163;0.000;0.000;2023-07-29T06:27:11;21.70;76.80
47414;DHT22;33163;0.000;0.000;2023-07-29T06:29:38;21.60;76.80
47414;DHT22;33163;0.000;0.000;2023-07-29T06:32:07;21.60;76.80
47414;DHT22;33163;0.000;0.000;2023-07-29T06:34:34;21.70;76.90
47414;DHT22;33163;0.000;0.000;2023-07-29T06:37:00;21.70;76.90
47414;DHT22;33163;0.000;0.000;2023-07-29T06:39:27;21.60;76.90
47414;DHT22;33163;0.000;0.000;2023-07-29T06:41:54;21.70;77.00
47414;DHT22;33163;0.000;0.000;2023-07-29T06:44:20;21.60;77.10
47414;DHT22;33163;0.000;0.000;2023-07-29T06:46:47;21.70;77.10
47414;DHT22;33163;0.000;0.000;2023-07-29T06:49:15;21.70;77.10
47414;DHT22;33163;0.000;0.000;2023-07-29T06:51:42;21.70;77.20
47414;DHT22;33163;0.000;0.000;2023-07-29T06:54:09;21.60;77.30
47414;DHT22;33163;0.000;0.000;2023-07-29T06:56:35;21.70;77.20
47414;DHT22;33163;0.000;0.000;2023-07-29T06:59:02;21.70;77.30
47414;DHT22;33163;0.000;0.000;2023-07-29T07:01:29;21.70;77.30
47414;DHT22;33163;0.000;0.000;2023-07-29T07:03:56;21.70;77.20
47414;DHT22;33163;0.000;0.000;2023-07-29T07:06:25;21.80;77.20
47414;DHT22;33163;0.000;0.000;2023-07-29T07:08:52;21.70;77.30
47414;DHT22;33163;0.000;0.000;2023-07-29T07:11:19;21.70;77.00
47414;DHT22;33163;0.000;0.000;2023-07-29T07:13:45;21.80;77.10
47414;DHT22;33163;0.000;0.000;2023-07-29T07:16:12;21.80;77.20
47414;DHT22;33163;0.000;0.000;2023-07-29T07:18:39;21.80;77.20
47414;DHT22;33163;0.000;0.000;2023-07-29T07:21:05;21.80;77.20
47414;DHT22;33163;0.000;0.000;2023-07-29T07:23:33;21.80;77.20
47414;DHT22;33163;0.000;0.000;2023-07-29T07:26:00;21.70;77.20
47414;DHT22;33163;0.000;0.000;2023-07-29T07:28:27;21.80;77.20
47414;DHT22;33163;0.000;0.000;2023-07-29T07:33:35;21.80;77.20
47414;DHT22;33163;0.000;0.000;2023-07-29T07:36:02;21.80;77.10
47414;DHT22;33163;0.000;0.000;2023-07-29T07:38:29;21.80;77.00
47414;DHT22;33163;0.000;0.000;2023-07-29T07:40:57;21.80;77.20
47414;DHT22;33163;0.000;0.000;2023-07-29T07:43:24;21.80;77.80
47414;DHT22;33163;0.000;0.000;2023-07-29T07:45:51;21.80;77.10
47414;DHT22;33163;0.000;0.000;2023-07-29T07:48:23;21.80;77.10
47414;DHT22;33163;0.000;0.000;2023-07-29T07:50:50;21.80;77.10
47414;DHT22;33163;0.000;0.000;2023-07-29T07:53:17;21.80;77.10
47414;DHT22;33163;0.000;0.000;2023-07-29T07:55:45;21.80;77.00
47414;DHT22;33163;0.000;0.000;2023-07-29T07:58:13;21.80;77.10
47414;DHT22;33163;0.000;0.000;2023-07-29T08:00:40;21.90;77.10
47414;DHT22;33163;0.000;0.000;2023-07-29T08:03:06;21.90;77.00
47414;DHT22;33163;0.000;0.000;2023-07-29T08:05:33;21.90;76.90
47414;DHT22;33163;0.000;0.000;2023-07-29T08:08:00;22.00;76.80
47414;DHT22;33163;0.000;0.000;2023-07-29T08:10:27;22.00;76.80
47414;DHT22;33163;0.000;0.000;2023-07-29T08:12:53;22.00;76.70
47414;DHT22;33163;0.000;0.000;2023-07-29T08:15:21;22.00;76.60
47414;DHT22;33163;0.000;0.000;2023-07-29T08:17:48;22.00;76.60
47414;DHT22;33163;0.000;0.000;2023-07-29T08:20:15;22.00;76.60
47414;DHT22;33163;0.000;0.000;2023-07-29T08:22:42;22.00;76.60
47414;DHT22;33163;0.000;0.000;2023-07-29T08:25:09;22.00;76.60
47414;DHT22;33163;0.000;0.000;2023-07-29T08:27:35;22.00;76.60
47414;DHT22;33163;0.000;0.000;2023-07-29T08:30:02;22.00;76.70
47414;DHT22;33163;0.000;0.000;2023-07-29T08:32:31;22.00;76.80
47414;DHT22;33163;0.000;0.000;2023-07-29T08:34:58;22.00;76.80
47414;DHT22;33163;0.000;0.000;2023-07-29T08:37:26;22.00;76.70
47414;DHT22;33163;0.000;0.000;2023-07-29T08:39:53;22.00;76.70
47414;DHT22;33163;0.000;0.000;2023-07-29T08:42:21;22.00;76.70
47414;DHT22;33163;0.000;0.000;2023-07-29T08:44:49;22.00;76.80
47414;DHT22;33163;0.000;0.000;2023-07-29T08:47:18;22.00;76.90
47414;DHT22;33163;0.000;0.000;2023-07-29T08:49:47;22.00;76.90
47414;DHT22;33163;0.000;0.000;2023-07-29T08:52:15;22.00;76.90
47414;DHT22;33163;0.000;0.000;2023-07-29T08:54:42;22.00;76.90
47414;DHT22;33163;0.000;0.000;2023-07-29T08:57:09;22.00;76.80
47414;DHT22;33163;0.000;0.000;2023-07-29T08:59:37;21.90;76.80
47414;DHT22;33163;0.000;0.000;2023-07-29T09:02:04;21.90;76.80
47414;DHT22;33163;0.000;0.000;2023-07-29T09:04:31;21.90;76.90
47414;DHT22;33163;0.000;0.000;2023-07-29T09:06:59;21.90;76.90
47414;DHT22;33163;0.000;0.000;2023-07-29T09:09:26;21.90;76.90
47414;DHT22;33163;0.000;0.000;2023-07-29T09:11:54;21.90;76.90
47414;DHT22;33163;0.000;0.000;2023-07-29T09:14:20;21.90;77.00
47414;DHT22;33163;0.000;0.000;2023-07-29T09:16:47;21.90;77.00
47414;DHT22;33163;0.000;0.000;2023-07-29T09:19:14;21.90;77.00
47414;DHT22;33163;0.000;0.000;2023-07-29T09:21:41;21.90;77.00
47414;DHT22;33163;0.000;0.000;2023-07-29T09:24:10;21.90;77.70
47414;DHT22;33163;0.000;0.000;2023-07-29T09:26:38;21.90;77.00
47414;DHT22;33163;0.000;0.000;2023-07-29T09:29:04;21.90;76.90
47414;DHT22;33163;0.000;0.000;2023-07-29T09:31:31;21.90;77.00
47414;DHT22;33163;0.000;0.000;2023-07-29T09:33:59;21.90;77.00
47414;DHT22;33163;0.000;0.000;2023-07-29T09:36:27;21.90;77.00
47414;DHT22;33163;0.000;0.000;2023-07-29T09:38:54;21.90;77.00
47414;DHT22;33163;0.000;0.000;2023-07-29T09:41:23;21.90;77.00
47414;DHT22;33163;0.000;0.000;2023-07-29T09:43:56;21.90;77.10
47414;DHT22;33163;0.000;0.000;2023-07-29T09:46:24;21.90;77.00
47414;DHT22;33163;0.000;0.000;2023-07-29T09:48:53;21.90;77.00
47414;DHT22;33163;0.000;0.000;2023-07-29T09:51:21;21.90;77.00
47414;DHT22;33163;0.000;0.000;2023-07-29T09:53:50;22.00;77.00
47414;DHT22;33163;0.000;0.000;2023-07-29T09:56:17;21.90;77.00
47414;DHT22;33163;0.000;0.000;2023-07-29T09:58:46;21.90;77.00
47414;DHT22;33163;0.000;0.000;2023-07-29T10:01:14;21.90;77.00
47414;DHT22;33163;0.000;0.000;2023-07-29T10:03:41;21.90;77.10
47414;DHT22;33163;0.000;0.000;2023-07-29T10:06:08;21.90;77.10
47414;DHT22;33163;0.000;0.000;2023-07-29T10:08:35;21.90;77.00
47414;DHT22;33163;0.000;0.000;2023-07-29T10:11:05;21.90;77.00
47414;DHT22;33163;0.000;0.000;2023-07-29T10:13:32;21.90;77.00
47414;DHT22;33163;0.000;0.000;2023-07-29T10:16:00;21.90;77.00
47414;DHT22;33163;0.000;0.000;2023-07-29T10:18:29;21.90;77.00
47414;DHT22;33163;0.000;0.000;2023-07-29T10:20:57;21.90;77.00
47414;DHT22;33163;0.000;0.000;2023-07-29T10:23:25;21.90;77.00
47414;DHT22;33163;0.000;0.000;2023-07-29T10:25:57;21.90;77.00
47414;DHT22;33163;0.000;0.000;2023-07-29T10:28:25;21.90;77.10
47414;DHT22;33163;0.000;0.000;2023-07-29T10:30:52;21.90;77.00
47414;DHT22;33163;0.000;0.000;2023-07-29T10:33:21;21.90;77.10
47414;DHT22;33163;0.000;0.000;2023-07-29T10:35:48;21.90;77.10
47414;DHT22;33163;0.000;0.000;2023-07-29T10:38:15;21.90;77.10
47414;DHT22;33163;0.000;0.000;2023-07-29T10:40:47;21.90;77.20
47414;DHT22;33163;0.000;0.000;2023-07-29T10:43:19;21.90;77.20
47414;DHT22;33163;0.000;0.000;2023-07-29T10:45:50;21.90;77.20
47414;DHT22;33163;0.000;0.000;2023-07-29T10:48:42;21.90;77.20
47414;DHT22;33163;0.000;0.000;2023-07-29T10:51:28;21.90;77.10
47414;DHT22;33163;0.000;0.000;2023-07-29T10:54:00;21.90;77.10
47414;DHT22;33163;0.000;0.000;2023-07-29T10:56:28;22.00;77.10
47414;DHT22;33163;0.000;0.000;2023-07-29T10:58:56;21.90;77.00
47414;DHT22;33163;0.000;0.000;2023-07-29T11:01:27;22.00;76.90
47414;DHT22;33163;0.000;0.000;2023-07-29T11:04:26;22.00;77.10
47414;DHT22;33163;0.000;0.000;2023-07-29T11:07:23;22.00;77.30
47414;DHT22;33163;0.000;0.000;2023-07-29T11:09:54;22.00;77.50
47414;DHT22;33163;0.000;0.000;2023-07-29T11:12:39;22.00;77.50
47414;DHT22;33163;0.000;0.000;2023-07-29T11:15:16;22.00;77.50
47414;DHT22;33163;0.000;0.000;2023-07-29T11:17:44;22.00;77.50
47414;DHT22;33163;0.000;0.000;2023-07-29T11:20:13;22.00;77.60
47414;DHT22;33163;0.000;0.000;2023-07-29T11:22:40;22.00;77.70
47414;DHT22;33163;0.000;0.000;2023-07-29T11:25:08;22.00;77.60
47414;DHT22;33163;0.000;0.000;2023-07-29T11:27:35;22.00;77.60
47414;DHT22;33163;0.000;0.000;2023-07-29T11:30:03;22.00;77.50
47414;DHT22;33163;0.000;0.000;2023-07-29T11:32:32;22.00;77.40
47414;DHT22;33163;0.000;0.000;2023-07-29T11:35:02;22.00;77.40
47414;DHT22;33163;0.000;0.000;2023-07-29T11:37:32;22.00;77.50
47414;DHT22;33163;0.000;0.000;2023-07-29T11:39:59;22.00;77.50
47414;DHT22;33163;0.000;0.000;2023-07-29T11:42:26;22.00;77.60
47414;DHT22;33163;0.000;0.000;2023-07-29T11:44:53;22.00;77.60
47414;DHT22;33163;0.000;0.000;2023-07-29T11:47:20;22.00;77.50
47414;DHT22;33163;0.000;0.000;2023-07-29T11:49:52;22.00;77.60
47414;DHT22;33163;0.000;0.000;2023-07-29T11:52:20;22.00;77.60
47414;DHT22;33163;0.000;0.000;2023-07-29T11:54:49;22.00;77.60
47414;DHT22;33163;0.000;0.000;2023-07-29T11:57:16;22.00;77.60
47414;DHT22;33163;0.000;0.000;2023-07-29T11:59:44;22.00;77.50
47414;DHT22;33163;0.000;0.000;2023-07-29T12:02:14;22.00;77.60
47414;DHT22;33163;0.000;0.000;2023-07-29T12:04:43;22.00;77.50
47414;DHT22;33163;0.000;0.000;2023-07-29T12:07:12;22.00;77.40
47414;DHT22;33163;0.000;0.000;2023-07-29T12:09:39;22.00;77.50
47414;DHT22;33163;0.000;0.000;2023-07-29T12:12:08;22.10;77.40
47414;DHT22;33163;0.000;0.000;2023-07-29T12:14:35;22.10;77.40
47414;DHT22;33163;0.000;0.000;2023-07-29T12:17:04;22.10;77.40
47414;DHT22;33163;0.000;0.000;2023-07-29T12:19:34;22.10;77.70
47414;DHT22;33163;0.000;0.000;2023-07-29T12:22:02;22.10;77.70
47414;DHT22;33163;0.000;0.000;2023-07-29T12:24:29;22.10;77.70
47414;DHT22;33163;0.000;0.000;2023-07-29T12:26:56;22.10;77.60
47414;DHT22;33163;0.000;0.000;2023-07-29T12:29:25;22.20;77.70
47414;DHT22;33163;0.000;0.000;2023-07-29T12:31:58;22.20;77.70
47414;DHT22;33163;0.000;0.000;2023-07-29T12:34:26;22.20;77.70
47414;DHT22;33163;0.000;0.000;2023-07-29T12:36:54;22.20;77.60
47414;DHT22;33163;0.000;0.000;2023-07-29T12:39:23;22.20;77.70
47414;DHT22;33163;0.000;0.000;2023-07-29T12:41:51;22.20;77.70
47414;DHT22;33163;0.000;0.000;2023-07-29T12:44:18;22.20;77.80
47414;DHT22;33163;0.000;0.000;2023-07-29T12:46:46;22.20;77.70
47414;DHT22;33163;0.000;0.000;2023-07-29T12:49:13;22.20;77.70
47414;DHT22;33163;0.000;0.000;2023-07-29T12:51:40;22.30;77.60
47414;DHT22;33163;0.000;0.000;2023-07-29T12:54:07;22.30;77.70
47414;DHT22;33163;0.000;0.000;2023-07-29T12:56:34;22.30;77.70
47414;DHT22;33163;0.000;0.000;2023-07-29T12:59:01;22.30;77.60
47414;DHT22;33163;0.000;0.000;2023-07-29T13:01:29;22.30;77.60
47414;DHT22;33163;0.000;0.000;2023-07-29T13:03:57;22.30;77.60
47414;DHT22;33163;0.000;0.000;2023-07-29T13:06:24;22.30;77.60
47414;DHT22;33163;0.000;0.000;2023-07-29T13:08:50;22.30;77.50
47414;DHT22;33163;0.000;0.000;2023-07-29T13:11:17;22.30;77.50
47414;DHT22;33163;0.000;0.000;2023-07-29T13:13:44;22.30;77.40
47414;DHT22;33163;0.000;0.000;2023-07-29T13:16:11;22.30;77.40
47414;DHT22;33163;0.000;0.000;2023-07-29T13:18:38;22.30;77.40
47414;DHT22;33163;0.000;0.000;2023-07-29T13:21:06;22.30;77.30
47414;DHT22;33163;0.000;0.000;2023-07-29T13:23:33;22.30;77.30
47414;DHT22;33163;0.000;0.000;2023-07-29T13:26:00;22.30;77.30
47414;DHT22;33163;0.000;0.000;2023-07-29T13:28:26;22.30;77.30
47414;DHT22;33163;0.000;0.000;2023-07-29T13:30:53;22.30;77.20
47414;DHT22;33163;0.000;0.000;2023-07-29T13:33:20;22.30;77.20
47414;DHT22;33163;0.000;0.000;2023-07-29T13:35:47;22.40;77.20
47414;DHT22;33163;0.000;0.000;2023-07-29T13:38:15;22.30;77.20
47414;DHT22;33163;0.000;0.000;2023-07-29T13:40:42;22.30;77.20
47414;DHT22;33163;0.000;0.000;2023-07-29T13:43:08;22.30;77.20
47414;DHT22;33163;0.000;0.000;2023-07-29T13:45:35;22.30;77.20
47414;DHT22;33163;0.000;0.000;2023-07-29T13:48:02;22.40;77.20
47414;DHT22;33163;0.000;0.000;2023-07-29T13:50:29;22.40;77.10
47414;DHT22;33163;0.000;0.000;2023-07-29T13:52:56;22.40;77.20
47414;DHT22;33163;0.000;0.000;2023-07-29T13:55:24;22.40;77.10
47414;DHT22;33163;0.000;0.000;2023-07-29T13:57:52;22.40;77.10
47414;DHT22;33163;0.000;0.000;2023-07-29T14:00:19;22.40;77.10
47414;DHT22;33163;0.000;0.000;2023-07-29T14:02:46;22.40;77.00
47414;DHT22;33163;0.000;0.000;2023-07-29T14:05:12;22.40;77.00
47414;DHT22;33163;0.000;0.000;2023-07-29T14:07:39;22.40;76.90
47414;DHT22;33163;0.000;0.000;2023-07-29T14:10:07;22.40;77.00
47414;DHT22;33163;0.000;0.000;2023-07-29T14:12:35;22.40;76.90
47414;DHT22;33163;0.000;0.000;2023-07-29T14:15:02;22.40;76.90
47414;DHT22;33163;0.000;0.000;2023-07-29T14:17:29;22.40;76.80
47414;DHT22;33163;0.000;0.000;2023-07-29T14:19:56;22.40;76.80
47414;DHT22;33163;0.000;0.000;2023-07-29T14:22:22;22.40;76.80
47414;DHT22;33163;0.000;0.000;2023-07-29T14:24:49;22.40;76.80
47414;DHT22;33163;0.000;0.000;2023-07-29T14:27:16;22.40;76.80
47414;DHT22;33163;0.000;0.000;2023-07-29T14:29:44;22.40;76.80
47414;DHT22;33163;0.000;0.000;2023-07-29T14:32:11;22.40;76.70
47414;DHT22;33163;0.000;0.000;2023-07-29T14:34:38;22.40;76.70
47414;DHT22;33163;0.000;0.000;2023-07-29T14:37:05;22.40;76.60
47414;DHT22;33163;0.000;0.000;2023-07-29T14:39:32;22.40;76.60
47414;DHT22;33163;0.000;0.000;2023-07-29T14:41:59;22.40;76.60
47414;DHT22;33163;0.000;0.000;2023-07-29T14:44:26;22.40;76.60
47414;DHT22;33163;0.000;0.000;2023-07-29T14:46:54;22.40;76.50
47414;DHT22;33163;0.000;0.000;2023-07-29T14:49:20;22.40;76.50
47414;DHT22;33163;0.000;0.000;2023-07-29T14:51:47;22.40;76.50
47414;DHT22;33163;0.000;0.000;2023-07-29T14:54:14;22.40;76.50
47414;DHT22;33163;0.000;0.000;2023-07-29T14:56:41;22.40;76.50
47414;DHT22;33163;0.000;0.000;2023-07-29T14:59:08;22.40;76.50
47414;DHT22;33163;0.000;0.000;2023-07-29T15:01:35;22.40;76.60
47414;DHT22;33163;0.000;0.000;2023-07-29T15:04:03;22.40;76.50
47414;DHT22;33163;0.000;0.000;2023-07-29T15:06:30;22.40;76.50
47414;DHT22;33163;0.000;0.000;2023-07-29T15:08:57;22.40;76.50
47414;DHT22;33163;0.000;0.000;2023-07-29T15:11:24;22.40;76.50
47414;DHT22;33163;0.000;0.000;2023-07-29T15:13:51;22.40;76.50
47414;DHT22;33163;0.000;0.000;2023-07-29T15:16:17;22.40;76.50
47414;DHT22;33163;0.000;0.000;2023-07-29T15:18:44;22.40;76.60
47414;DHT22;33163;0.000;0.000;2023-07-29T15:21:12;22.40;76.50
47414;DHT22;33163;0.000;0.000;2023-07-29T15:23:39;22.40;76.50
47414;DHT22;33163;0.000;0.000;2023-07-29T15:26:05;22.40;76.50
47414;DHT22;33163;0.000;0.000;2023-07-29T15:28:32;22.40;76.60
47414;DHT22;33163;0.000;0.000;2023-07-29T15:30:59;22.40;76.50
47414;DHT22;33163;0.000;0.000;2023-07-29T15:33:26;22.40;76.60
47414;DHT22;33163;0.000;0.000;2023-07-29T15:35:53;22.30;76.50
47414;DHT22;33163;0.000;0.000;2023-07-29T15:38:21;22.40;76.60
47414;DHT22;33163;0.000;0.000;2023-07-29T15:40:47;22.30;76.60
47414;DHT22;33163;0.000;0.000;2023-07-29T15:43:16;22.30;76.60
47414;DHT22;33163;0.000;0.000;2023-07-29T15:45:43;22.30;76.60
47414;DHT22;33163;0.000;0.000;2023-07-29T15:48:11;22.30;76.50
47414;DHT22;33163;0.000;0.000;2023-07-29T15:50:38;22.30;76.50